createdAt,value
2018-12-15T16:41:16.056Z,62.6
2018-12-15T16:46:19.942Z,59.1
2018-12-15T16:51:20.273Z,57.3
2018-12-15T16:56:20.422Z,55.5
2018-12-15T17:01:19.882Z,52.9
2018-12-15T17:06:19.823Z,51.7
2018-12-15T17:11:19.058Z,50.2
2018-12-15T17:16:17.935Z,48
2018-12-15T17:21:17.194Z,45.7
2018-12-15T17:26:16.380Z,44.1
2018-12-15T17:31:15.442Z,42.6
2018-12-15T17:36:14.662Z,41.5
2018-12-15T17:41:13.994Z,39.7
2018-12-15T17:46:12.661Z,38
2018-12-15T17:51:12.135Z,37.5
2018-12-15T17:56:10.867Z,36
2018-12-15T18:01:09.176Z,35.1
2018-12-15T18:06:11.547Z,34.3
2018-12-15T18:11:09.243Z,33.7
2018-12-15T18:16:07.656Z,33
2018-12-15T18:21:10.174Z,32.9
2018-12-15T18:26:07.540Z,32.7
2018-12-15T18:31:04.885Z,30.4
2018-12-15T18:36:02.575Z,30.9
2018-12-15T18:40:59.652Z,31.1
2018-12-15T18:45:57.150Z,31.1
2018-12-15T18:50:53.715Z,31.1
2018-12-15T18:55:51.795Z,31.4
2018-12-15T19:00:48.195Z,31.6
2018-12-15T19:05:44.750Z,30.4
2018-12-15T19:10:42.576Z,28.5
2018-12-15T19:15:38.651Z,27
2018-12-15T19:20:35.407Z,27.1
2018-12-15T19:25:31.958Z,27.4
2018-12-15T19:30:28.001Z,26.9
2018-12-15T19:35:24.568Z,27.1
2018-12-15T19:40:21.352Z,28.5
2018-12-15T19:45:17.735Z,29.5
2018-12-15T19:50:14.141Z,30.5
2018-12-15T19:55:10.225Z,31.3
2018-12-15T20:00:07.122Z,32.2
2018-12-15T20:05:03.809Z,33.5
2018-12-15T20:10:00.077Z,34
2018-12-15T20:14:56.359Z,34.5
2018-12-15T20:19:52.817Z,35
2018-12-15T20:24:49.306Z,35.5
2018-12-15T20:29:45.911Z,36
2018-12-15T20:34:42.790Z,36.3
2018-12-15T20:39:39.240Z,37.1
2018-12-15T20:44:42.017Z,37.4
2018-12-15T20:49:37.592Z,38
2018-12-15T20:54:35.361Z,38.3
2018-12-15T20:59:31.842Z,38.5
2018-12-15T21:04:28.051Z,38.8
2018-12-15T21:09:24.605Z,39.7
2018-12-15T21:14:21.112Z,40.4
2018-12-15T21:19:17.614Z,40.4
2018-12-15T21:24:14.716Z,40.9
2018-12-15T21:29:11.571Z,41.6
2018-12-15T21:34:08.982Z,41.8
2018-12-15T21:39:05.126Z,42
2018-12-15T21:44:01.489Z,42.3
2018-12-15T21:48:58.089Z,42.4
2018-12-15T21:53:54.838Z,42.8
2018-12-15T21:58:52.254Z,42.8
2018-12-15T22:03:49.036Z,43
2018-12-15T22:08:46.066Z,43.8
2018-12-15T22:13:43.014Z,44
2018-12-15T22:18:39.611Z,44.2
2018-12-15T22:23:36.769Z,44.2
2018-12-15T22:28:32.752Z,44.3
2018-12-15T22:33:29.597Z,44.6
2018-12-15T22:38:26.095Z,44.9
2018-12-15T22:43:22.403Z,44.8
2018-12-15T22:48:19.384Z,44.9
2018-12-15T22:53:16.100Z,44.8
2018-12-15T22:58:12.513Z,44.7
2018-12-15T23:03:09.541Z,45.2
2018-12-15T23:08:05.772Z,45.3
2018-12-15T23:13:02.772Z,45.2
2018-12-15T23:17:59.137Z,45.4
2018-12-15T23:22:55.749Z,45
2018-12-15T23:27:52.277Z,44.7
2018-12-15T23:32:48.854Z,44.7
2018-12-15T23:37:45.513Z,44.6
2018-12-15T23:42:42.354Z,44.9
2018-12-15T23:47:39.314Z,44.8
2018-12-15T23:52:36.113Z,44.8
2018-12-15T23:57:32.968Z,44.8
